Terminal Aerodrome Forecast
Issued by NWS

Home | Current Version | Previous Version | Text Only | Print | Product List | Glossary On
Versions: 1 2 3 4 5 6 7 8 9 10 11 12 13 14 15 16 17
000
FTUS43 KDVN 291400 AAA
TAFCID
TAF AMD
KCID 291457Z 2915/3012 20018G26KT P6SM SCT015 BKN050
      TEMPO 2915/2916 OVC015
     FM291600 21019G26KT P6SM FEW040 BKN070
     FM291900 29018G32KT P6SM FEW100 SCT250
     FM300600 27009KT P6SM SKC=

USA.gov is the U.S. government's official web portal to all federal, state and local government web resources and services.